createdAt,value
2023-02-19T00:04:04.716Z,4
2023-02-19T00:33:02.999Z,4
2023-02-19T01:01:48.677Z,5
2023-02-19T01:30:46.478Z,4
2023-02-19T01:59:51.499Z,4
2023-02-19T02:28:55.448Z,4
2023-02-19T02:57:50.392Z,5
2023-02-19T03:26:58.663Z,6
2023-02-19T03:55:54.087Z,6
2023-02-19T04:25:08.378Z,4
2023-02-19T04:54:04.617Z,1
2023-02-19T05:23:14.450Z,1
2023-02-19T05:52:15.454Z,1
2023-02-19T06:21:17.379Z,1
2023-02-19T06:50:23.510Z,1
2023-02-19T07:19:22.164Z,1
2023-02-19T07:48:26.417Z,1
2023-02-19T08:17:30.583Z,1
2023-02-19T08:46:38.841Z,2
2023-02-19T09:15:50.777Z,10
2023-02-19T09:44:50.187Z,4
2023-02-19T10:14:06.897Z,4
2023-02-19T10:43:18.974Z,13
2023-02-19T11:12:25.768Z,7
2023-02-19T11:41:25.550Z,5
2023-02-19T12:10:29.872Z,6
2023-02-19T12:39:31.569Z,5
2023-02-19T13:08:53.180Z,5
2023-02-19T13:37:07.375Z,4
2023-02-19T14:06:04.545Z,5
2023-02-19T14:35:07.289Z,5
2023-02-19T15:04:17.264Z,6
2023-02-19T15:33:20.020Z,7
2023-02-19T16:02:27.738Z,5
2023-02-19T16:31:06.898Z,4
2023-02-19T17:00:07.282Z,8
2023-02-19T17:29:09.744Z,8
2023-02-19T17:58:23.094Z,8
2023-02-19T18:27:21.812Z,8
2023-02-19T18:55:47.677Z,14
2023-02-19T19:24:07.750Z,15
2023-02-19T19:52:23.325Z,11
2023-02-19T20:20:53.507Z,16
2023-02-19T20:49:16.193Z,13
2023-02-19T21:17:46.501Z,16
2023-02-19T21:45:59.124Z,13
2023-02-19T22:14:15.505Z,13
2023-02-19T22:42:36.353Z,10
2023-02-19T23:10:57.145Z,10
2023-02-19T23:39:12.757Z,11
